Time;durP1;ratioP1;P1;durP2;ratioP2;P2;SDS_P1;SDS_P2;PMS_P1;PMS_P2;Temp;Humidity;BMP_temperature;BMP_pressure;BME280_temperature;BME280_humidity;BME280_pressure;Samples;Min_cycle;Max_cycle;Signal;HPM_P1;HPM_P2
2022/04/17 00:02:25;;;;;;;10.67;6.37;;;;;;;7.65;46.02;102785.56;6560553;22;20010;-77
2022/04/17 00:04:56;;;;;;;7.90;6.17;;;;;;;7.78;46.51;102796.31;6560249;22;20011;-77
2022/04/17 00:07:28;;;;;;;9.57;6.27;;;;;;;7.73;45.81;102790.09;6560067;22;20744;-77
2022/04/17 00:10:00;;;;;;;9.97;6.10;;;;;;;7.64;47.57;102793.28;6560337;22;20324;-75
2022/04/17 00:12:31;;;;;;;10.63;5.80;;;;;;;7.43;46.73;102789.16;6559784;22;20007;-77
2022/04/17 00:15:03;;;;;;;11.43;6.70;;;;;;;7.29;47.22;102786.13;6560434;22;20008;-77
2022/04/17 00:17:37;;;;;;;9.27;7.03;;;;;;;7.23;47.49;102787.63;6560179;22;20015;-78
2022/04/17 00:20:11;;;;;;;9.75;6.38;;;;;;;7.29;48.20;102791.31;6560402;22;20007;-77
2022/04/17 00:22:43;;;;;;;11.20;6.85;;;;;;;7.15;47.90;102792.59;6559525;22;20074;-77
2022/04/17 00:25:16;;;;;;;9.93;6.73;;;;;;;7.00;48.07;102787.72;6560161;22;20034;-77
2022/04/17 00:27:47;;;;;;;9.65;6.63;;;;;;;6.96;48.99;102790.19;6559667;22;20034;-77
2022/04/17 00:30:19;;;;;;;10.07;5.87;;;;;;;6.86;47.15;102779.50;6560280;22;20003;-76
2022/04/17 00:32:50;;;;;;;12.97;6.57;;;;;;;6.87;49.02;102789.03;6560747;22;20614;-76
2022/04/17 00:35:21;;;;;;;8.30;5.80;;;;;;;6.90;48.68;102796.91;6560571;22;20003;-77
2022/04/17 00:37:53;;;;;;;11.37;6.70;;;;;;;6.74;49.71;102794.63;6559880;22;20008;-76
2022/04/17 00:40:24;;;;;;;8.57;6.47;;;;;;;6.56;50.66;102784.47;6561085;22;20057;-78
2022/04/17 00:42:58;;;;;;;8.77;6.07;;;;;;;6.64;50.24;102785.63;6560462;22;20554;-76
2022/04/17 00:45:29;;;;;;;8.43;5.90;;;;;;;6.62;51.01;102786.38;6560039;22;20078;-77
2022/04/17 00:48:00;;;;;;;9.77;6.50;;;;;;;6.46;49.58;102774.63;6559818;22;20093;-78
2022/04/17 00:50:31;;;;;;;11.47;5.73;;;;;;;6.37;49.37;102776.03;6560167;22;20007;-77
2022/04/17 00:53:04;;;;;;;9.93;5.97;;;;;;;6.26;50.54;102779.06;6559571;22;20086;-77
2022/04/17 00:55:35;;;;;;;10.38;6.95;;;;;;;6.32;51.17;102784.47;6559761;22;20041;-77
2022/04/17 00:58:07;;;;;;;10.57;6.53;;;;;;;6.22;50.73;102783.25;6560687;22;20033;-77
2022/04/17 01:00:40;;;;;;;8.68;5.28;;;;;;;6.18;51.01;102774.50;6562031;22;20007;-76
2022/04/17 01:03:13;;;;;;;11.80;6.70;;;;;;;5.95;51.12;102776.16;6562570;22;20030;-76
2022/04/17 01:05:46;;;;;;;11.90;7.32;;;;;;;5.88;51.74;102773.28;6562348;22;20003;-76
2022/04/17 01:08:18;;;;;;;10.10;5.75;;;;;;;5.96;51.62;102771.88;6561574;22;20523;-76
2022/04/17 01:10:50;;;;;;;12.47;6.20;;;;;;;5.84;51.60;102775.75;6562128;22;20030;-76
2022/04/17 01:13:22;;;;;;;7.87;5.60;;;;;;;5.69;52.21;102763.94;6561700;22;20014;-76
2022/04/17 01:15:58;;;;;;;11.85;6.28;;;;;;;5.68;52.71;102768.19;6562282;22;20341;-75
2022/04/17 01:18:30;;;;;;;10.27;6.57;;;;;;;5.65;54.07;102760.31;6561784;22;20413;-76
2022/04/17 01:21:01;;;;;;;9.73;6.20;;;;;;;5.43;53.09;102764.66;6549032;22;20014;-75
2022/04/17 01:29:14;;;;;;;11.00;6.60;;;;;;;5.47;52.97;102778.59;6561765;22;20011;-77
2022/04/17 01:31:46;;;;;;;8.88;5.65;;;;;;;5.31;53.90;102779.66;6562079;22;20007;-76
2022/04/17 01:34:18;;;;;;;8.20;6.22;;;;;;;5.38;53.70;102788.59;6561912;22;20049;-76
2022/04/17 01:36:50;;;;;;;9.00;6.10;;;;;;;5.30;54.25;102788.25;6561933;22;20168;-76
2022/04/17 01:39:22;;;;;;;9.20;6.10;;;;;;;5.29;54.31;102789.94;6561044;22;20003;-77
2022/04/17 01:41:55;;;;;;;7.20;5.20;;;;;;;5.10;54.19;102782.25;6561323;22;20018;-76
2022/04/17 01:44:28;;;;;;;9.65;6.00;;;;;;;5.12;55.01;102785.81;6549934;22;20715;-77
2022/04/17 01:47:02;;;;;;;9.25;5.32;;;;;;;5.09;54.71;102781.38;6561072;22;20007;-77
2022/04/17 01:49:34;;;;;;;9.05;5.72;;;;;;;5.03;55.56;102785.41;6561671;22;20458;-77
2022/04/17 01:52:08;;;;;;;8.18;5.30;;;;;;;4.82;55.76;102781.06;6533981;22;20042;-77
2022/04/17 01:54:39;;;;;;;10.85;5.35;;;;;;;4.96;56.45;102780.78;6561356;22;20007;-77
2022/04/17 01:57:10;;;;;;;10.97;5.60;;;;;;;4.70;56.54;102776.28;6561656;22;20082;-77
2022/04/17 01:59:41;;;;;;;8.73;5.17;;;;;;;4.53;56.03;102761.75;6561611;22;20038;-77
2022/04/17 02:02:13;;;;;;;11.00;6.50;;;;;;;4.49;57.04;102765.00;6561747;22;20114;-77
2022/04/17 02:04:44;;;;;;;7.33;5.00;;;;;;;4.48;57.42;102771.88;6561195;22;20095;-77
2022/04/17 02:07:16;;;;;;;8.10;5.40;;;;;;;4.57;57.49;102779.13;6561401;22;20007;-78
2022/04/17 02:09:47;;;;;;;8.60;5.73;;;;;;;4.36;57.19;102769.63;6560366;22;19999;-76
2022/04/17 02:12:19;;;;;;;8.03;5.57;;;;;;;4.28;57.39;102762.34;6561494;22;20064;-77
2022/04/17 02:14:50;;;;;;;10.47;5.00;;;;;;;4.32;58.03;102766.84;6561519;22;20017;-77
2022/04/17 02:17:22;;;;;;;9.77;5.60;;;;;;;4.37;58.29;102768.78;6560946;22;20332;-77
2022/04/17 02:19:53;;;;;;;9.20;6.20;;;;;;;4.29;57.71;102772.72;6561225;22;20256;-77
2022/04/17 02:22:24;;;;;;;10.33;5.87;;;;;;;4.16;57.73;102765.25;6561537;22;20010;-77
2022/04/17 02:24:56;;;;;;;8.63;6.07;;;;;;;4.15;56.31;102760.91;6561229;22;20424;-79
2022/04/17 02:27:27;;;;;;;12.20;6.20;;;;;;;4.12;56.97;102760.75;6561196;22;20038;-77
2022/04/17 02:29:59;;;;;;;9.60;5.40;;;;;;;4.03;58.70;102761.25;6561168;22;20031;-77
2022/04/17 02:32:30;;;;;;;10.07;5.23;;;;;;;3.88;58.15;102756.25;6561446;22;20061;-78
2022/04/17 02:35:02;;;;;;;7.83;5.43;;;;;;;3.93;58.66;102757.34;6561111;22;20018;-78
2022/04/17 02:37:37;;;;;;;12.03;5.93;;;;;;;3.90;59.40;102758.91;6560998;22;20003;-77
2022/04/17 02:40:08;;;;;;;12.07;5.95;;;;;;;3.87;59.00;102766.50;6561168;22;20022;-77
2022/04/17 02:42:40;;;;;;;8.43;5.73;;;;;;;3.93;59.34;102759.03;6560747;22;20013;-78
2022/04/17 02:45:11;;;;;;;9.00;5.47;;;;;;;3.86;59.49;102755.28;6560816;22;20010;-78
2022/04/17 02:47:42;;;;;;;10.60;6.10;;;;;;;3.72;59.72;102749.50;6561028;22;20011;-78
2022/04/17 02:50:17;;;;;;;7.17;5.47;;;;;;;3.69;59.12;102758.75;6560889;22;20018;-77
2022/04/17 02:52:53;;;;;;;8.02;5.47;;;;;;;3.70;59.63;102753.66;6561169;22;20007;-77
2022/04/17 02:55:24;;;;;;;8.95;5.57;;;;;;;3.61;59.03;102754.13;6561258;22;20052;-78
2022/04/17 02:57:56;;;;;;;8.67;5.40;;;;;;;3.58;59.82;102759.16;6560764;22;20086;-78
2022/04/17 03:00:28;;;;;;;8.47;5.77;;;;;;;3.54;59.82;102762.41;6561077;22;20045;-77
2022/04/17 03:05:49;;;;;;;9.23;5.00;;;;;;;3.42;60.17;102757.53;6560835;22;20011;-77
2022/04/17 03:08:21;;;;;;;9.33;6.47;;;;;;;3.36;60.24;102759.81;6561098;22;20007;-77
2022/04/17 03:10:52;;;;;;;9.10;5.90;;;;;;;3.21;61.00;102752.22;6560636;22;20178;-77
2022/04/17 03:13:23;;;;;;;8.50;5.70;;;;;;;3.16;61.06;102752.81;6560218;22;19999;-76
2022/04/17 03:15:55;;;;;;;10.60;5.40;;;;;;;3.07;61.14;102756.66;6560752;22;20030;-76
2022/04/17 03:18:26;;;;;;;8.87;5.10;;;;;;;3.09;61.62;102752.50;6560736;22;20002;-77
2022/04/17 03:21:00;;;;;;;7.50;5.00;;;;;;;2.90;61.80;102736.94;6560493;22;20013;-77
2022/04/17 03:23:31;;;;;;;9.32;6.32;;;;;;;2.86;62.49;102741.03;6560607;22;20007;-76
2022/04/17 03:26:03;;;;;;;9.37;6.23;;;;;;;2.78;63.55;102726.00;6561057;22;20018;-76
2022/04/17 03:28:34;;;;;;;9.83;6.17;;;;;;;2.81;64.01;102728.75;6560132;22;20499;-76
2022/04/17 03:31:05;;;;;;;8.30;5.57;;;;;;;2.88;63.19;102738.53;6560211;22;20090;-77
2022/04/17 03:33:37;;;;;;;8.07;5.73;;;;;;;2.77;63.00;102726.81;6560798;22;20026;-78
2022/04/17 03:36:08;;;;;;;9.13;6.10;;;;;;;2.71;62.74;102736.00;6560322;22;20010;-77
2022/04/17 03:38:39;;;;;;;9.07;6.47;;;;;;;2.59;63.54;102731.91;6560442;22;20030;-77
2022/04/17 03:41:10;;;;;;;9.40;6.13;;;;;;;2.54;63.75;102735.16;6559834;22;20078;-77
2022/04/17 03:43:42;;;;;;;10.50;6.17;;;;;;;2.45;63.31;102724.38;6560255;22;20074;-77
2022/04/17 03:46:13;;;;;;;9.93;6.20;;;;;;;2.48;63.36;102724.53;6560905;22;20011;-77
2022/04/17 03:48:44;;;;;;;8.23;5.30;;;;;;;2.45;63.75;102720.91;6560268;22;20011;-77
2022/04/17 03:51:16;;;;;;;10.40;5.70;;;;;;;2.46;63.77;102730.38;6560481;22;20003;-76
2022/04/17 03:53:47;;;;;;;8.93;5.10;;;;;;;2.33;64.91;102718.56;6560713;22;20003;-77
2022/04/17 03:56:18;;;;;;;8.53;6.87;;;;;;;2.29;64.81;102726.97;6560416;22;20400;-77
2022/04/17 03:58:50;;;;;;;8.97;5.37;;;;;;;2.28;64.76;102723.47;6560357;22;20015;-77
2022/04/17 04:01:22;;;;;;;8.63;4.72;;;;;;;2.34;64.86;102728.06;6560827;22;20027;-77
2022/04/17 04:03:56;;;;;;;8.97;5.67;;;;;;;2.24;65.06;102729.28;6560477;22;20837;-77
2022/04/17 04:06:28;;;;;;;7.38;5.40;;;;;;;2.15;65.24;102713.34;6560468;22;20057;-78
2022/04/17 04:08:59;;;;;;;6.83;5.10;;;;;;;2.12;66.04;102713.19;6560263;22;20007;-77
2022/04/17 04:11:30;;;;;;;10.40;6.07;;;;;;;2.10;66.10;102715.69;6560048;22;20440;-75
2022/04/17 04:14:05;;;;;;;9.93;5.63;;;;;;;2.04;65.96;102723.06;6559825;22;20080;-76
2022/04/17 04:16:37;;;;;;;7.78;5.32;;;;;;;2.00;66.67;102714.31;6560012;22;20086;-76
2022/04/17 04:19:10;;;;;;;8.03;5.70;;;;;;;1.97;66.65;102724.44;6560538;22;20424;-77
2022/04/17 04:21:47;;;;;;;11.40;6.43;;;;;;;1.86;66.65;102710.09;6559824;22;20393;-77
2022/04/17 04:24:19;;;;;;;7.72;5.78;;;;;;;1.89;66.96;102706.81;6560322;22;20003;-76
2022/04/17 04:29:41;;;;;;;11.13;5.70;;;;;;;1.83;67.30;102702.22;6559870;22;20015;-76
2022/04/17 04:32:12;;;;;;;14.07;6.07;;;;;;;1.86;66.54;102693.81;6560666;22;20869;-78
2022/04/17 04:34:44;;;;;;;10.20;6.53;;;;;;;1.72;67.49;102696.50;6561974;22;20011;-78
2022/04/17 04:37:15;;;;;;;9.80;5.27;;;;;;;1.76;67.89;102688.16;6561792;22;20007;-78
2022/04/17 04:39:46;;;;;;;10.17;7.00;;;;;;;1.80;67.43;102700.41;6562158;22;20090;-76
2022/04/17 04:42:20;;;;;;;11.00;5.73;;;;;;;1.72;67.68;102698.19;6561528;22;20081;-75
2022/04/17 04:46:06;;;;;;;10.18;5.90;;;;;;;1.78;67.50;102691.69;6561535;22;20003;-76
2022/04/17 04:47:42;;;;;;;11.93;5.78;;;;;;;1.71;67.81;102689.59;6561661;22;20069;-76
2022/04/17 04:50:14;;;;;;;11.93;6.00;;;;;;;1.68;68.46;102689.44;6561146;22;20015;-76
2022/04/17 04:52:45;;;;;;;10.97;6.27;;;;;;;1.66;68.34;102693.63;6561931;22;20011;-77
2022/04/17 04:55:16;;;;;;;9.87;6.43;;;;;;;1.66;68.06;102690.13;6561544;22;20011;-77
2022/04/17 04:57:48;;;;;;;12.40;6.30;;;;;;;1.60;68.56;102685.56;6561980;22;20010;-76
2022/04/17 05:00:19;;;;;;;10.10;6.27;;;;;;;1.65;68.39;102699.53;6561445;22;20485;-77
2022/04/17 05:02:51;;;;;;;9.73;6.33;;;;;;;1.55;68.74;102699.84;6561249;22;20003;-77
2022/04/17 05:05:22;;;;;;;9.83;5.80;;;;;;;1.50;68.88;102691.88;6561749;22;20007;-77
2022/04/17 05:07:53;;;;;;;9.60;5.90;;;;;;;1.53;69.29;102696.28;6561892;22;20003;-77
2022/04/17 05:10:25;;;;;;;9.13;5.60;;;;;;;1.62;69.37;102689.09;6561575;22;20007;-77
2022/04/17 05:12:57;;;;;;;7.33;5.80;;;;;;;1.69;70.22;102696.34;6561014;22;20007;-77
2022/04/17 05:15:29;;;;;;;8.23;5.63;;;;;;;1.66;69.95;102693.63;6561479;22;20009;-77
2022/04/17 05:18:00;;;;;;;11.70;6.13;;;;;;;1.65;69.70;102699.53;6560884;22;20102;-77
2022/04/17 05:20:34;;;;;;;8.47;5.97;;;;;;;1.63;70.04;102702.03;6561432;22;20401;-76
2022/04/17 05:23:29;;;;;;;8.82;5.40;;;;;;;1.61;69.98;102701.06;6561224;22;20018;-77
2022/04/17 05:26:03;;;;;;;8.73;6.30;;;;;;;1.68;69.94;102701.41;6561647;22;20446;-77
2022/04/17 05:28:34;;;;;;;9.32;5.85;;;;;;;1.71;69.69;102705.03;6561106;22;20408;-77
2022/04/17 05:31:05;;;;;;;9.00;5.90;;;;;;;1.85;69.66;102707.44;6562141;22;20010;-77
2022/04/17 05:33:36;;;;;;;9.43;5.47;;;;;;;1.86;68.30;102704.09;6561230;22;20004;-77
2022/04/17 05:36:08;;;;;;;8.40;5.17;;;;;;;1.89;68.95;102706.81;6533106;22;20381;-77
2022/04/17 05:38:39;;;;;;;10.63;5.93;;;;;;;1.93;68.51;102701.94;6561010;22;20003;-76
2022/04/17 05:41:11;;;;;;;7.93;5.33;;;;;;;2.04;68.76;102701.59;6561272;22;20071;-77
2022/04/17 05:43:42;;;;;;;9.70;6.30;;;;;;;2.08;69.18;102709.56;6561375;22;20003;-76
2022/04/17 05:46:14;;;;;;;11.20;5.67;;;;;;;2.18;69.03;102700.66;6561167;22;20014;-77
2022/04/17 05:48:46;;;;;;;10.70;5.30;;;;;;;2.18;69.45;102704.09;6560984;22;20409;-77
2022/04/17 05:51:17;;;;;;;9.15;6.50;;;;;;;2.26;69.88;102711.34;6561270;22;20476;-76
2022/04/17 05:53:48;;;;;;;12.40;5.57;;;;;;;2.35;70.04;102698.94;6560542;22;20010;-77
2022/04/17 05:56:20;;;;;;;6.93;5.43;;;;;;;2.49;69.57;102704.81;6561358;22;20007;-78
2022/04/17 05:58:51;;;;;;;10.43;5.63;;;;;;;2.60;69.30;102703.66;6561399;22;20084;-79
2022/04/17 06:01:24;;;;;;;13.43;6.13;;;;;;;2.79;68.40;102704.59;6561550;22;20007;-80
2022/04/17 06:03:55;;;;;;;10.18;5.30;;;;;;;2.98;67.71;102715.00;6560564;22;20010;-79
2022/04/17 06:06:27;;;;;;;9.40;5.50;;;;;;;3.14;66.60;102706.34;6560825;22;20417;-78
2022/04/17 06:08:58;;;;;;;7.63;6.00;;;;;;;3.33;65.76;102704.66;6560441;22;20065;-78
2022/04/17 06:11:30;;;;;;;7.97;5.20;;;;;;;3.48;64.94;102689.91;6561308;22;20003;-77
2022/04/17 06:14:02;;;;;;;8.37;5.30;;;;;;;3.68;64.42;102692.53;6560767;22;20433;-79
2022/04/17 06:16:33;;;;;;;11.00;5.47;;;;;;;3.91;63.70;102698.72;6561397;22;20011;-80
2022/04/17 06:19:05;;;;;;;8.00;5.07;;;;;;;4.09;63.29;102703.84;6560692;22;20007;-77
2022/04/17 06:21:37;;;;;;;9.00;5.47;;;;;;;4.26;62.33;102695.16;6560998;22;19999;-78
2022/04/17 06:24:08;;;;;;;8.97;5.00;;;;;;;4.45;61.94;102702.00;6561486;22;20007;-78
2022/04/17 06:26:40;;;;;;;7.37;4.57;;;;;;;4.59;61.38;102694.84;6561137;22;20035;-79
2022/04/17 06:29:11;;;;;;;8.93;4.43;;;;;;;4.81;60.02;102700.91;6561137;22;20010;-79
2022/04/17 06:31:45;;;;;;;11.13;4.83;;;;;;;4.93;59.92;102680.75;6560743;22;20229;-79
2022/04/17 06:34:16;;;;;;;6.63;4.13;;;;;;;5.16;58.86;102689.44;6561378;22;20011;-78
2022/04/17 06:36:48;;;;;;;6.70;4.17;;;;;;;5.23;58.25;102677.63;6560902;22;19999;-77
2022/04/17 06:39:19;;;;;;;8.20;4.17;;;;;;;5.43;57.54;102679.28;6560716;22;19999;-77
2022/04/17 06:41:50;;;;;;;6.07;3.40;;;;;;;5.58;56.98;102684.16;6561063;22;20007;-78
2022/04/17 06:44:22;;;;;;;6.87;4.17;;;;;;;5.74;56.86;102682.19;6560523;22;20094;-78
2022/04/17 06:46:53;;;;;;;5.60;3.67;;;;;;;5.92;55.41;102681.97;6560572;22;20034;-77
2022/04/17 06:49:24;;;;;;;6.90;3.67;;;;;;;6.03;55.17;102688.47;6560929;22;20027;-76
2022/04/17 06:51:56;;;;;;;9.37;4.17;;;;;;;6.23;54.35;102698.66;6560339;22;20197;-77
2022/04/17 06:54:27;;;;;;;6.83;4.40;;;;;;;6.34;54.21;102694.75;6560624;22;20011;-78
2022/04/17 06:56:58;;;;;;;8.10;3.47;;;;;;;6.45;53.64;102683.03;6560273;22;20363;-79
2022/04/17 06:59:30;;;;;;;7.73;3.43;;;;;;;6.64;52.75;102683.69;6560551;22;20444;-77
2022/04/17 07:02:01;;;;;;;5.90;3.50;;;;;;;6.82;52.19;102686.88;6560551;22;20003;-78
2022/04/17 07:04:32;;;;;;;8.63;3.43;;;;;;;6.89;50.99;102667.22;6556278;22;20015;-77
2022/04/17 07:07:04;;;;;;;6.80;3.23;;;;;;;7.03;50.05;102686.72;6559794;22;20426;-78
2022/04/17 07:09:35;;;;;;;5.50;3.57;;;;;;;7.17;50.15;102684.56;6560722;22;20082;-79
2022/04/17 07:12:07;;;;;;;4.63;3.40;;;;;;;7.25;50.41;102675.31;6559454;22;20432;-79
2022/04/17 07:14:38;;;;;;;5.87;3.50;;;;;;;7.48;50.11;102677.72;6560518;22;20013;-79
2022/04/17 07:17:09;;;;;;;8.10;3.53;;;;;;;7.57;50.04;102678.03;6560786;22;20007;-79
2022/04/17 07:19:41;;;;;;;5.00;3.20;;;;;;;7.66;49.09;102674.81;6559673;22;20393;-79
2022/04/17 07:22:13;;;;;;;6.17;3.90;;;;;;;7.77;48.42;102673.41;6560491;22;19999;-80
2022/04/17 07:24:51;;;;;;;6.60;3.50;;;;;;;7.87;48.51;102671.09;6562376;22;20451;-79
2022/04/17 07:27:22;;;;;;;5.78;3.38;;;;;;;8.02;48.75;102659.41;6563083;22;20003;-78
2022/04/17 07:29:54;;;;;;;5.87;3.13;;;;;;;8.13;48.33;102664.91;6577867;22;20436;-79
2022/04/17 07:32:25;;;;;;;7.97;3.00;;;;;;;8.30;48.11;102656.69;6561623;22;20014;-79
2022/04/17 07:34:57;;;;;;;10.80;4.17;;;;;;;8.31;46.91;102654.13;6557480;22;20007;-79
2022/04/17 07:37:28;;;;;;;6.90;3.20;;;;;;;8.43;46.99;102644.91;6560018;22;20003;-80
2022/04/17 07:40:00;;;;;;;6.23;3.50;;;;;;;8.54;46.68;102656.50;6560155;22;20072;-80
2022/04/17 07:42:31;;;;;;;5.73;3.87;;;;;;;8.64;46.44;102648.06;6556664;22;20038;-79
2022/04/17 07:45:03;;;;;;;10.47;4.73;;;;;;;8.75;45.91;102656.16;6559908;22;19999;-80
2022/04/17 07:47:34;;;;;;;6.57;3.10;;;;;;;8.88;46.29;102642.59;6559776;22;20014;-76
2022/04/17 07:50:07;;;;;;;7.10;3.40;;;;;;;9.16;48.05;102653.66;6557867;22;20086;-80
2022/04/17 07:52:41;;;;;;;4.78;3.33;;;;;;;9.28;44.96;102645.25;6560385;22;20003;-78
2022/04/17 07:55:14;;;;;;;5.43;3.03;;;;;;;9.34;44.31;102648.00;6560357;22;20333;-78
2022/04/17 08:00:45;;;;;;;6.35;3.30;;;;;;;9.55;43.53;102642.38;6571578;22;20043;-77
2022/04/17 08:06:06;;;;;;;4.60;3.03;;;;;;;9.84;44.08;102645.56;6576537;22;20008;-78
2022/04/17 08:08:39;;;;;;;5.67;3.30;;;;;;;9.94;44.32;102653.59;6560134;22;20098;-79
2022/04/17 08:11:12;;;;;;;5.68;3.25;;;;;;;10.11;43.88;102648.69;6558122;22;20094;-80
2022/04/17 08:13:44;;;;;;;;;;;;;;;10.23;44.52;102649.78;6559707;22;20233;-79
2022/04/17 08:16:17;;;;;;;7.43;3.85;;;;;;;10.36;42.53;102642.25;6561081;22;19910;-80
2022/04/17 08:18:49;;;;;;;5.25;3.53;;;;;;;10.39;41.89;102642.28;6560386;22;20010;-80
2022/04/17 08:21:20;;;;;;;4.60;3.67;;;;;;;10.49;41.74;102644.19;6560188;22;20313;-80
2022/04/17 08:23:51;;;;;;;5.97;3.17;;;;;;;10.60;42.08;102640.91;6532658;22;20007;-80
2022/04/17 08:26:23;;;;;;;5.13;3.27;;;;;;;10.95;42.76;102629.31;6560533;22;20340;-79
2022/04/17 08:28:54;;;;;;;6.27;2.87;;;;;;;10.95;40.81;102642.34;6561004;22;20010;-79
2022/04/17 08:31:25;;;;;;;7.43;3.70;;;;;;;11.00;40.66;102638.94;6561051;22;20424;-78
2022/04/17 08:33:57;;;;;;;7.53;3.13;;;;;;;10.95;39.47;102625.84;6560705;22;20014;-78
2022/04/17 08:36:28;;;;;;;4.43;2.57;;;;;;;11.00;39.73;102628.50;6573820;22;19999;-79
2022/04/17 08:38:59;;;;;;;6.10;3.10;;;;;;;11.18;39.33;102628.75;6560859;22;20003;-78
2022/04/17 08:41:33;;;;;;;6.13;2.97;;;;;;;11.41;39.01;102625.59;6560402;22;20033;-78
2022/04/17 08:44:04;;;;;;;6.20;2.63;;;;;;;11.48;38.16;102638.75;6559849;22;20014;-77
2022/04/17 08:46:36;;;;;;;4.30;2.60;;;;;;;11.71;38.44;102632.09;6560201;22;20011;-79
2022/04/17 08:49:10;;;;;;;9.27;2.70;;;;;;;11.59;37.57;102627.56;6560099;22;20454;-79
2022/04/17 08:51:48;;;;;;;3.97;2.50;;;;;;;11.79;37.41;102622.59;6560048;22;20011;-79
2022/04/17 08:54:21;;;;;;;4.43;2.83;;;;;;;12.09;37.46;102632.53;6559541;22;20011;-80
2022/04/17 08:56:52;;;;;;;7.20;2.75;;;;;;;12.22;38.56;102628.31;6559889;22;20011;-79
2022/04/17 08:59:24;;;;;;;6.03;3.37;;;;;;;12.52;39.18;102621.59;6559977;22;20065;-78
2022/04/17 09:01:55;;;;;;;5.30;3.27;;;;;;;12.71;38.27;102618.28;6559876;22;20004;-79
2022/04/17 09:04:27;;;;;;;6.23;2.90;;;;;;;12.65;35.98;102612.13;6559724;22;20007;-79
2022/04/17 09:07:00;;;;;;;4.47;2.60;;;;;;;12.91;37.50;102612.31;6560619;22;20471;-81
2022/04/17 09:09:31;;;;;;;5.82;2.90;;;;;;;12.86;36.97;102608.78;6560043;22;20246;-80
2022/04/17 09:12:03;;;;;;;5.20;3.00;;;;;;;12.92;36.45;102603.59;6559364;22;20011;-80
2022/04/17 09:14:40;;;;;;;4.83;2.87;;;;;;;13.16;36.06;102621.19;6531968;22;20015;-81
2022/04/17 09:17:11;;;;;;;5.13;3.25;;;;;;;13.56;36.82;102620.56;6559651;22;20335;-79
2022/04/17 09:19:43;;;;;;;4.70;3.10;;;;;;;13.71;35.92;102604.00;6561235;22;20010;-80
2022/04/17 09:22:14;;;;;;;3.33;2.27;;;;;;;14.78;35.04;102598.03;6561820;22;20015;-80
2022/04/17 09:24:45;;;;;;;5.67;2.83;;;;;;;15.72;31.20;102604.75;6561920;22;20003;-80
2022/04/17 09:27:17;;;;;;;4.27;2.70;;;;;;;16.67;30.65;102595.31;6562853;22;20034;-78
2022/04/17 09:29:48;;;;;;;5.00;2.83;;;;;;;17.79;29.22;102590.50;6558458;22;20042;-80
2022/04/17 09:32:21;;;;;;;5.83;3.40;;;;;;;18.17;27.83;102591.75;6562157;22;20078;-81
2022/04/17 09:34:56;;;;;;;5.07;2.58;;;;;;;18.68;26.35;102598.81;6563648;22;20031;-80
2022/04/17 09:37:29;;;;;;;4.88;3.13;;;;;;;19.44;25.67;102593.81;6563828;22;20003;-79
2022/04/17 09:40:09;;;;;;;6.47;3.05;;;;;;;19.89;26.02;102584.94;6568784;22;20066;-79
2022/04/17 09:42:41;;;;;;;3.88;2.58;;;;;;;20.03;24.27;102587.28;6568617;22;20139;-80
2022/04/17 09:45:13;;;;;;;4.17;2.80;;;;;;;20.49;24.36;102586.09;6571506;22;20015;-80
2022/04/17 09:47:56;;;;;;;4.07;2.40;;;;;;;20.58;25.23;102580.56;6573718;22;20006;-81
2022/04/17 09:50:35;;;;;;;5.13;3.15;;;;;;;20.65;25.13;102576.00;6545921;22;20011;-80
2022/04/17 09:53:09;;;;;;;6.10;2.75;;;;;;;20.91;24.01;102563.81;6531011;22;20039;-82
2022/04/17 09:55:41;;;;;;;6.88;2.70;;;;;;;20.85;22.89;102564.00;6530947;22;20428;-81
2022/04/17 09:58:13;;;;;;;4.30;2.45;;;;;;;21.58;22.99;102549.53;6531316;22;20031;-80
2022/04/17 10:00:44;;;;;;;5.90;2.80;;;;;;;22.08;22.13;102557.66;6531796;22;20062;-80
2022/04/17 10:03:16;;;;;;;7.07;3.05;;;;;;;21.97;22.33;102546.53;6530895;22;20082;-78
2022/04/17 10:05:48;;;;;;;4.70;2.53;;;;;;;21.84;21.56;102552.22;6529711;22;20007;-79
2022/04/17 10:08:20;;;;;;;5.65;2.72;;;;;;;22.10;23.07;102546.97;6530151;22;20007;-79
2022/04/17 10:10:51;;;;;;;4.38;2.90;;;;;;;22.75;21.40;102537.69;6530844;22;20014;-80
2022/04/17 10:13:23;;;;;;;4.57;2.67;;;;;;;23.03;22.19;102531.34;6528943;22;20069;-79
2022/04/17 10:15:59;;;;;;;3.72;2.50;;;;;;;23.46;21.93;102532.38;6529913;22;20018;-80
2022/04/17 10:18:34;;;;;;;3.97;2.75;;;;;;;24.08;20.39;102528.09;6502185;22;20058;-81
2022/04/17 10:21:07;;;;;;;4.43;2.50;;;;;;;24.36;19.77;102527.78;6529834;22;20099;-78
2022/04/17 10:23:42;;;;;;;4.10;2.55;;;;;;;23.56;19.29;102523.09;6528680;22;20004;-79
2022/04/17 10:26:15;;;;;;;3.67;2.17;;;;;;;23.38;19.32;102516.72;6529083;22;20285;-79
2022/04/17 10:28:48;;;;;;;;;;;;;;;25.55;18.77;102508.19;6530668;22;19999;-77
2022/04/17 10:31:20;;;;;;;3.90;2.55;;;;;;;23.99;18.65;102502.72;6529088;22;19911;-80
2022/04/17 10:34:21;;;;;;;5.03;2.30;;;;;;;24.12;19.48;102497.72;6502762;22;20425;-81
2022/04/17 10:37:05;;;;;;;3.90;2.40;;;;;;;24.55;19.17;102497.63;6529066;22;20012;-78
2022/04/17 10:39:48;;;;;;;3.42;2.17;;;;;;;24.85;19.34;102492.75;6528417;22;20057;-81
2022/04/17 10:42:19;;;;;;;3.45;2.10;;;;;;;25.18;18.42;102484.13;6528334;22;20012;-80
2022/04/17 10:45:03;;;;;;;4.47;2.13;;;;;;;24.80;18.83;102480.56;6528918;22;20000;-81
2022/04/17 10:47:34;;;;;;;4.78;2.90;;;;;;;25.97;17.54;102472.28;6528534;22;20035;-82
2022/04/17 10:50:07;;;;;;;7.30;2.43;;;;;;;25.78;16.55;102473.19;6528062;22;20040;-81
2022/04/17 10:52:41;;;;;;;8.20;3.00;;;;;;;26.38;16.60;102461.22;6528474;22;20088;-81
2022/04/17 10:55:15;;;;;;;3.00;2.10;;;;;;;26.66;15.77;102463.34;6528239;22;20015;-81
2022/04/17 10:57:48;;;;;;;3.55;2.00;;;;;;;26.68;16.41;102452.56;6528854;22;20498;-82
2022/04/17 11:00:37;;;;;;;3.03;2.00;;;;;;;26.65;16.20;102447.38;6528439;22;20104;-83
2022/04/17 11:03:10;;;;;;;5.20;2.20;;;;;;;26.57;15.15;102453.94;6528138;22;20008;-82
2022/04/17 11:08:47;;;;;;;8.10;2.20;;;;;;;26.92;15.42;102453.00;6528388;22;20019;-84
2022/04/17 11:11:19;;;;;;;3.88;2.58;;;;;;;26.79;16.11;102450.16;6528840;22;20004;-83
2022/04/17 11:14:10;;;;;;;2.33;1.80;;;;;;;27.58;15.21;102443.91;6529206;22;20190;-84
2022/04/17 11:16:46;;;;;;;3.33;1.88;;;;;;;27.34;14.31;102440.84;6530050;22;20010;-83
2022/04/17 11:19:28;;;;;;;2.72;1.83;;;;;;;27.90;13.90;102440.25;6530889;22;20069;-83
2022/04/17 11:22:03;;;;;;;4.75;2.35;;;;;;;27.36;13.12;102436.25;6530497;22;20344;-82
2022/04/17 11:24:54;;;;;;;4.30;2.30;;;;;;;28.36;14.13;102429.41;6539840;22;20004;-82
2022/04/17 11:27:45;;;;;;;5.68;2.42;;;;;;;28.36;14.28;102430.25;6529570;22;20031;-83
2022/04/17 11:30:19;;;;;;;8.93;2.35;;;;;;;28.06;13.88;102424.13;6528443;22;20000;-83
2022/04/17 11:32:51;;;;;;;5.65;2.33;;;;;;;27.58;15.04;102402.84;6528545;22;20360;-83
2022/04/17 11:35:25;;;;;;;5.40;2.53;;;;;;;27.95;14.61;102409.56;6529422;22;20417;-83
2022/04/17 11:38:06;;;;;;;4.18;2.03;;;;;;;28.50;13.41;102404.41;6502173;22;20015;-84
2022/04/17 11:40:38;;;;;;;4.85;2.13;;;;;;;28.25;14.22;102403.25;6529430;22;20080;-83
2022/04/17 11:43:12;;;;;;;;;;;;;;;31.07;13.97;102403.00;6529308;22;20007;-82
2022/04/17 11:45:46;;;;;;;2.88;1.98;;;;;;;29.63;14.63;102403.31;6524814;22;20033;-84
2022/04/17 11:48:19;;;;;;;3.40;1.92;;;;;;;30.41;12.95;102394.31;6529067;22;20004;-82
2022/04/17 11:50:56;;;;;;;4.80;2.05;;;;;;;30.26;12.36;102373.88;6548166;22;20082;-83
2022/04/17 11:53:31;;;;;;;3.28;2.10;;;;;;;31.05;11.63;102377.97;6560689;22;20003;-83
2022/04/17 11:56:03;;;;;;;5.80;2.17;;;;;;;31.23;13.29;102380.25;6559916;22;20420;-83
2022/04/17 11:58:35;;;;;;;2.08;1.88;;;;;;;31.10;11.47;102366.88;6559350;22;20329;-81
2022/04/17 12:01:07;;;;;;;6.88;2.20;;;;;;;31.33;10.68;102364.25;6560357;22;20007;-81
2022/04/17 12:03:48;;;;;;;4.07;2.30;;;;;;;31.23;11.29;102373.03;6560735;22;20007;-82
2022/04/17 12:06:26;;;;;;;6.43;2.22;;;;;;;31.67;11.23;102364.38;6533785;22;20386;-82
2022/04/17 12:09:15;;;;;;;5.78;2.17;;;;;;;32.13;10.95;102363.47;6534506;22;20007;-86
2022/04/17 12:11:49;;;;;;;5.40;2.30;;;;;;;31.61;11.12;102352.25;6534320;22;20003;-84
2022/04/17 12:14:30;;;;;;;4.00;2.38;;;;;;;30.87;12.14;102336.25;6560351;22;20027;-85
2022/04/17 12:17:01;;;;;;;3.90;2.10;;;;;;;31.15;11.31;102345.81;6533980;22;20091;-84